SWR98K EKCH-EPKK
Flight info
| Callsign | SWR98K |
|---|---|
| Flight time | N/A |
| Altitude | 37000 |
| Route | SIMEG Z491 TELMO DCT KOLOB N195 ELPOL N983 POLON N133 NEGUV M66 KUKAM |
| Aircraft | MD11/H-SDE1E2E3FGHIJ2J3J4J5M1RWXY/LB1D1 |
Departure
| Time | 2026-05-05 13:07 |
|---|---|
| Airport | Copenhagen Kastrup Airport (EKCH) |
Arrival
| Time | N/A |
|---|---|
| Airport | Kraków John Paul II International Airport (EPKK) |
| Time | Latitude | Longitude | Altitude | Speed | Heading |
|---|---|---|---|---|---|
| 2026-05-05 11:17 | 55.62506 | 12.65063 | 26 ft | 0 kts | 268° |
| 2026-05-05 12:53 | 55.62506 | 12.65089 | 26 ft | 4 kts | 260° |
| 2026-05-05 12:53 | 55.62514 | 12.65132 | 25 ft | 4 kts | 237° |
| 2026-05-05 12:53 | 55.62529 | 12.65165 | 25 ft | 4 kts | 209° |
| 2026-05-05 12:53 | 55.62552 | 12.65179 | 24 ft | 4 kts | 178° |
| 2026-05-05 12:54 | 55.62526 | 12.65181 | 24 ft | 0 kts | 177° |
| 2026-05-05 12:59 | 55.62525 | 12.65181 | 24 ft | 1 kts | 177° |
| 2026-05-05 13:00 | 55.62498 | 12.65183 | 26 ft | 4 kts | 178° |
| 2026-05-05 13:00 | 55.62463 | 12.65185 | 27 ft | 6 kts | 178° |
| 2026-05-05 13:01 | 55.62297 | 12.65196 | 28 ft | 10 kts | 178° |
| 2026-05-05 13:01 | 55.62226 | 12.65188 | 30 ft | 10 kts | 193° |
| 2026-05-05 13:01 | 55.62163 | 12.65127 | 31 ft | 11 kts | 213° |
| 2026-05-05 13:01 | 55.62082 | 12.65033 | 29 ft | 18 kts | 213° |
| 2026-05-05 13:02 | 55.61959 | 12.64891 | 29 ft | 25 kts | 212° |
| 2026-05-05 13:02 | 55.61807 | 12.64716 | 28 ft | 25 kts | 213° |
| 2026-05-05 13:02 | 55.61666 | 12.64553 | 28 ft | 24 kts | 213° |
| 2026-05-05 13:02 | 55.61527 | 12.64394 | 31 ft | 24 kts | 213° |
| 2026-05-05 13:03 | 55.61385 | 12.64233 | 26 ft | 25 kts | 213° |
| 2026-05-05 13:03 | 55.61238 | 12.64061 | 28 ft | 26 kts | 214° |
| 2026-05-05 13:03 | 55.61075 | 12.63872 | 27 ft | 30 kts | 213° |
| 2026-05-05 13:03 | 55.60900 | 12.63672 | 28 ft | 30 kts | 213° |
| 2026-05-05 13:04 | 55.60728 | 12.63477 | 31 ft | 29 kts | 212° |
| 2026-05-05 13:04 | 55.60578 | 12.63273 | 31 ft | 23 kts | 221° |
| 2026-05-05 13:04 | 55.60490 | 12.63141 | 29 ft | 14 kts | 216° |
| 2026-05-05 13:04 | 55.60416 | 12.63137 | 30 ft | 10 kts | 151° |
| 2026-05-05 13:05 | 55.60367 | 12.63223 | 30 ft | 10 kts | 130° |
| 2026-05-05 13:05 | 55.60340 | 12.63316 | 33 ft | 6 kts | 96° |
| 2026-05-05 13:05 | 55.60347 | 12.63356 | 31 ft | 3 kts | 66° |
| 2026-05-05 13:05 | 55.60365 | 12.63393 | 32 ft | 0 kts | 44° |
| 2026-05-05 13:06 | 55.60373 | 12.63408 | 32 ft | 3 kts | 44° |
| 2026-05-05 13:06 | 55.60423 | 12.63489 | 29 ft | 29 kts | 41° |
| 2026-05-05 13:06 | 55.60855 | 12.64150 | 31 ft | 132 kts | 40° |
| 2026-05-05 13:06 | 55.61710 | 12.65457 | 443 ft | 172 kts | 40° |
| 2026-05-05 13:07 | 55.62616 | 12.66836 | 1734 ft | 173 kts | 37° |
| 2026-05-05 13:07 | 55.63616 | 12.68327 | 2385 ft | 207 kts | 37° |
| 2026-05-05 13:07 | 55.64821 | 12.70075 | 2552 ft | 239 kts | 38° |
| 2026-05-05 13:07 | 55.66130 | 12.72043 | 2989 ft | 249 kts | 38° |
| 2026-05-05 13:08 | 55.67449 | 12.74053 | 3664 ft | 252 kts | 38° |
| 2026-05-05 13:08 | 55.68770 | 12.76120 | 4340 ft | 255 kts | 42° |
| 2026-05-05 13:08 | 55.69788 | 12.78716 | 5024 ft | 262 kts | 66° |
| 2026-05-05 13:08 | 55.70049 | 12.81945 | 5664 ft | 273 kts | 94° |
| 2026-05-05 13:09 | 55.69445 | 12.85156 | 6327 ft | 280 kts | 122° |
| 2026-05-05 13:09 | 55.68086 | 12.87615 | 6988 ft | 282 kts | 149° |
| 2026-05-05 13:09 | 55.66347 | 12.89235 | 7697 ft | 284 kts | 158° |
| 2026-05-05 13:09 | 55.64539 | 12.90677 | 8485 ft | 286 kts | 159° |
| 2026-05-05 13:10 | 55.62734 | 12.92101 | 9307 ft | 289 kts | 160° |
| 2026-05-05 13:10 | 55.60899 | 12.93602 | 10077 ft | 294 kts | 158° |
| 2026-05-05 13:10 | 55.59009 | 12.95422 | 10266 ft | 325 kts | 153° |
| 2026-05-05 13:10 | 55.57035 | 12.97735 | 10403 ft | 356 kts | 148° |
| 2026-05-05 13:11 | 55.55024 | 13.00489 | 10978 ft | 370 kts | 144° |
| 2026-05-05 13:11 | 55.53049 | 13.03473 | 11844 ft | 376 kts | 142° |
| 2026-05-05 13:11 | 55.51094 | 13.06594 | 12714 ft | 382 kts | 141° |
| 2026-05-05 13:11 | 55.49136 | 13.09815 | 13580 ft | 387 kts | 141° |
| 2026-05-05 13:12 | 55.47167 | 13.13102 | 14349 ft | 392 kts | 140° |
| 2026-05-05 13:12 | 55.45178 | 13.16445 | 15130 ft | 397 kts | 140° |
| 2026-05-05 13:12 | 55.43175 | 13.19820 | 15909 ft | 400 kts | 140° |
| 2026-05-05 13:12 | 55.41151 | 13.23231 | 16692 ft | 404 kts | 140° |